Time;durP1;ratioP1;P1;durP2;ratioP2;P2;SDS_P1;SDS_P2;PMS_P1;PMS_P2;Temp;Humidity;BMP_temperature;BMP_pressure;BME280_temperature;BME280_humidity;BME280_pressure;Samples;Min_cycle;Max_cycle;Signal;HPM_P1;HPM_P2
2022/08/14 00:01:22;;;;;;;;;;;20.10;99.90;;;;;;5015895;28;19905;-74
2022/08/14 00:03:47;;;;;;;;;;;20.10;99.90;;;;;;5015655;28;19956;-78
2022/08/14 00:06:13;;;;;;;;;;;20.00;99.90;;;;;;5015850;28;19909;-79
2022/08/14 00:08:38;;;;;;;;;;;20.10;99.90;;;;;;5015890;28;20404;-73
2022/08/14 00:11:04;;;;;;;;;;;20.10;99.90;;;;;;5015703;28;19912;-74
2022/08/14 00:13:29;;;;;;;;;;;20.00;99.90;;;;;;5015297;28;19905;-73
2022/08/14 00:15:57;;;;;;;;;;;20.00;99.90;;;;;;5015779;28;19905;-78
2022/08/14 00:18:23;;;;;;;;;;;20.10;99.90;;;;;;5015247;28;19905;-74
2022/08/14 00:20:50;;;;;;;;;;;20.00;99.90;;;;;;5016305;28;19959;-78
2022/08/14 00:23:16;;;;;;;;;;;20.00;99.90;;;;;;5015360;28;19928;-73
2022/08/14 00:25:42;;;;;;;;;;;20.00;99.90;;;;;;5015667;28;19906;-79
2022/08/14 00:28:09;;;;;;;;;;;20.00;99.90;;;;;;5015082;28;19905;-78
2022/08/14 00:30:35;;;;;;;;;;;19.90;99.90;;;;;;5015408;28;20380;-78
2022/08/14 00:33:00;;;;;;;;;;;19.90;99.90;;;;;;5015312;28;19912;-78
2022/08/14 00:35:27;;;;;;;;;;;19.90;99.90;;;;;;5017553;28;19905;-73
2022/08/14 00:37:52;;;;;;;;;;;19.90;99.90;;;;;;5015391;28;19914;-73
2022/08/14 00:40:18;;;;;;;;;;;19.90;99.90;;;;;;5014886;28;19914;-77
2022/08/14 00:42:44;;;;;;;;;;;19.90;99.90;;;;;;5006115;28;19909;-74
2022/08/14 00:45:12;;;;;;;;;;;19.90;99.90;;;;;;5015119;28;19948;-77
2022/08/14 00:47:38;;;;;;;;;;;19.80;99.90;;;;;;5016527;28;20391;-73
2022/08/14 00:50:06;;;;;;;;;;;19.90;99.90;;;;;;5014535;28;19917;-75
2022/08/14 00:52:32;;;;;;;;;;;19.90;99.90;;;;;;5014823;28;19918;-77
2022/08/14 00:54:58;;;;;;;;;;;19.90;99.90;;;;;;5015139;28;19905;-77
2022/08/14 00:57:25;;;;;;;;;;;20.00;99.90;;;;;;5014454;28;20385;-77
2022/08/14 00:59:51;;;;;;;;;;;19.90;99.90;;;;;;5013545;28;20287;-74
2022/08/14 01:02:17;;;;;;;;;;;20.00;99.90;;;;;;5014608;28;19905;-73
2022/08/14 01:04:43;;;;;;;;;;;19.90;99.90;;;;;;5014644;28;19906;-77
2022/08/14 01:07:09;;;;;;;;;;;20.00;99.90;;;;;;5014958;28;20319;-74
2022/08/14 01:09:36;;;;;;;;;;;20.00;99.90;;;;;;5014601;28;19959;-77
2022/08/14 01:12:02;;;;;;;;;;;20.00;99.90;;;;;;5014267;28;19906;-76
2022/08/14 01:14:27;;;;;;;;;;;20.10;99.90;;;;;;5014661;28;19988;-74
2022/08/14 01:16:53;;;;;;;;;;;20.10;99.90;;;;;;5012319;28;20008;-76
2022/08/14 01:22:04;;;;;;;;;;;20.10;99.90;;;;;;5004521;28;19912;-77
2022/08/14 01:24:30;;;;;;;;;;;20.10;99.90;;;;;;5014413;28;20002;-76
2022/08/14 01:26:56;;;;;;;;;;;20.10;99.90;;;;;;5012046;28;19905;-77
2022/08/14 01:29:22;;;;;;;;;;;20.10;99.90;;;;;;5014227;28;19909;-74
2022/08/14 01:31:53;;;;;;;;;;;20.10;99.90;;;;;;5014408;28;19905;-74
2022/08/14 01:34:22;;;;;;;;;;;20.10;99.90;;;;;;5013818;28;20356;-76
2022/08/14 01:36:48;;;;;;;;;;;20.10;99.90;;;;;;5016572;28;19906;-77
2022/08/14 01:39:14;;;;;;;;;;;20.10;99.90;;;;;;5014409;28;19909;-77
2022/08/14 01:41:41;;;;;;;;;;;20.10;99.90;;;;;;5006849;28;20253;-75
2022/08/14 01:44:11;;;;;;;;;;;20.00;99.90;;;;;;5012112;28;19988;-78
2022/08/14 01:46:38;;;;;;;;;;;19.90;99.90;;;;;;5014635;28;19976;-77
2022/08/14 01:49:05;;;;;;;;;;;19.90;99.90;;;;;;5014819;28;19913;-74
2022/08/14 01:51:31;;;;;;;;;;;19.90;99.90;;;;;;5013155;28;19905;-73
2022/08/14 01:53:59;;;;;;;;;;;19.90;99.90;;;;;;5013840;28;20000;-77
2022/08/14 01:56:39;;;;;;;;;;;19.90;99.90;;;;;;5013771;28;20288;-76
2022/08/14 01:59:19;;;;;;;;;;;19.90;99.90;;;;;;5012639;28;20432;-76
2022/08/14 02:01:50;;;;;;;;;;;19.90;99.90;;;;;;5013987;28;19906;-76
2022/08/14 02:04:16;;;;;;;;;;;20.00;99.90;;;;;;5007373;28;20364;-74
2022/08/14 02:06:43;;;;;;;;;;;20.00;99.90;;;;;;5010012;28;19953;-75
2022/08/14 02:09:08;;;;;;;;;;;20.00;99.90;;;;;;5013648;28;19910;-77
2022/08/14 02:11:35;;;;;;;;;;;20.00;99.90;;;;;;5013487;28;19912;-74
2022/08/14 02:14:03;;;;;;;;;;;20.00;99.90;;;;;;5013484;28;19951;-77
2022/08/14 02:16:35;;;;;;;;;;;20.00;99.90;;;;;;5024342;28;19909;-74
2022/08/14 02:19:04;;;;;;;;;;;20.00;99.90;;;;;;5013397;28;20000;-74
2022/08/14 02:21:31;;;;;;;;;;;20.00;99.90;;;;;;5014118;28;19931;-73
2022/08/14 02:23:58;;;;;;;;;;;20.00;99.90;;;;;;5013602;28;19996;-74
2022/08/14 02:26:25;;;;;;;;;;;20.00;99.90;;;;;;5013491;28;20025;-77
2022/08/14 02:28:52;;;;;;;;;;;20.00;99.90;;;;;;5012993;28;20319;-74
2022/08/14 02:31:18;;;;;;;;;;;20.00;99.90;;;;;;5013370;28;20355;-73
2022/08/14 02:33:44;;;;;;;;;;;20.00;99.90;;;;;;5013475;28;19953;-75
2022/08/14 02:36:10;;;;;;;;;;;20.00;99.90;;;;;;5018927;28;19952;-77
2022/08/14 02:38:37;;;;;;;;;;;20.00;99.90;;;;;;5020843;28;20294;-74
2022/08/14 02:41:03;;;;;;;;;;;19.90;99.90;;;;;;5010322;28;19913;-77
2022/08/14 02:43:30;;;;;;;;;;;20.00;99.90;;;;;;5006161;28;19905;-74
2022/08/14 02:45:57;;;;;;;;;;;20.00;99.90;;;;;;5013165;28;19947;-74
2022/08/14 02:48:25;;;;;;;;;;;19.90;99.90;;;;;;5015417;28;19906;-77
2022/08/14 02:50:50;;;;;;;;;;;19.90;99.90;;;;;;5013387;28;20280;-77
2022/08/14 02:53:15;;;;;;;;;;;19.90;99.90;;;;;;5012474;28;19917;-77
2022/08/14 02:55:42;;;;;;;;;;;19.90;99.90;;;;;;5013189;28;19905;-76
2022/08/14 02:58:08;;;;;;;;;;;19.90;99.90;;;;;;5012765;28;19937;-74
2022/08/14 03:00:34;;;;;;;;;;;19.90;99.90;;;;;;5013235;28;20006;-76
2022/08/14 03:03:03;;;;;;;;;;;19.90;99.90;;;;;;5013127;28;19910;-77
2022/08/14 03:05:29;;;;;;;;;;;19.90;99.90;;;;;;5013147;28;19951;-77
2022/08/14 03:08:08;;;;;;;;;;;19.90;99.90;;;;;;5013518;28;20327;-77
2022/08/14 03:10:35;;;;;;;;;;;19.90;99.90;;;;;;5011832;28;20008;-76
2022/08/14 03:13:03;;;;;;;;;;;19.90;99.90;;;;;;5012488;28;19905;-74
2022/08/14 03:15:33;;;;;;;;;;;20.00;99.90;;;;;;5013191;28;19905;-77
2022/08/14 03:17:58;;;;;;;;;;;19.90;99.90;;;;;;5016570;28;20340;-76
2022/08/14 03:20:27;;;;;;;;;;;19.90;99.90;;;;;;5018544;28;19996;-76
2022/08/14 03:22:52;;;;;;;;;;;19.90;99.90;;;;;;5016359;28;19909;-74
2022/08/14 03:25:21;;;;;;;;;;;19.90;99.90;;;;;;5017022;28;19912;-74
2022/08/14 03:27:46;;;;;;;;;;;19.90;99.90;;;;;;5016415;28;19905;-76
2022/08/14 03:30:12;;;;;;;;;;;19.90;99.90;;;;;;5016505;28;19909;-74
2022/08/14 03:32:38;;;;;;;;;;;19.90;99.90;;;;;;5016563;28;19905;-76
2022/08/14 03:35:04;;;;;;;;;;;19.90;99.90;;;;;;5018660;28;20418;-76
2022/08/14 03:37:29;;;;;;;;;;;19.90;99.90;;;;;;5015061;28;19910;-76
2022/08/14 03:39:55;;;;;;;;;;;19.90;99.90;;;;;;5014154;28;20056;-74
2022/08/14 03:42:24;;;;;;;;;;;19.90;99.90;;;;;;5005508;28;19909;-76
2022/08/14 03:44:50;;;;;;;;;;;19.90;99.90;;;;;;5016432;28;19944;-77
2022/08/14 03:47:15;;;;;;;;;;;19.90;99.90;;;;;;5019001;28;19910;-76
2022/08/14 03:49:42;;;;;;;;;;;20.00;99.90;;;;;;5016345;28;19909;-74
2022/08/14 03:52:08;;;;;;;;;;;20.00;99.90;;;;;;5015982;28;20004;-75
2022/08/14 03:54:34;;;;;;;;;;;20.00;99.90;;;;;;5015471;28;20025;-77
2022/08/14 03:57:00;;;;;;;;;;;20.00;99.90;;;;;;5015521;28;19909;-76
2022/08/14 03:59:26;;;;;;;;;;;20.00;99.90;;;;;;5015800;28;19992;-76
2022/08/14 04:01:51;;;;;;;;;;;20.00;99.90;;;;;;5015349;28;19992;-74
2022/08/14 04:04:17;;;;;;;;;;;20.00;99.90;;;;;;5016077;28;19905;-74
2022/08/14 04:06:43;;;;;;;;;;;20.00;99.90;;;;;;5015503;28;19905;-76
2022/08/14 04:09:08;;;;;;;;;;;20.10;99.90;;;;;;5015594;28;19916;-77
2022/08/14 04:11:35;;;;;;;;;;;20.10;99.90;;;;;;5015729;28;19912;-76
2022/08/14 04:14:01;;;;;;;;;;;20.00;99.90;;;;;;5015785;28;19913;-76
2022/08/14 04:16:26;;;;;;;;;;;20.00;99.90;;;;;;5015659;28;19905;-76
2022/08/14 04:18:53;;;;;;;;;;;20.10;99.90;;;;;;5015350;28;19959;-76
2022/08/14 04:21:23;;;;;;;;;;;20.10;99.90;;;;;;5016703;28;19962;-73
2022/08/14 04:23:52;;;;;;;;;;;20.00;99.90;;;;;;5015348;28;20454;-74
2022/08/14 04:26:18;;;;;;;;;;;20.10;99.90;;;;;;5015432;28;20434;-76
2022/08/14 04:28:44;;;;;;;;;;;20.00;99.90;;;;;;5014921;28;19913;-74
2022/08/14 04:31:10;;;;;;;;;;;20.00;99.90;;;;;;5015447;28;19956;-76
2022/08/14 04:33:36;;;;;;;;;;;20.00;99.90;;;;;;5015462;28;19913;-77
2022/08/14 04:36:02;;;;;;;;;;;20.00;99.90;;;;;;5017494;28;19914;-76
2022/08/14 04:43:55;;;;;;;;;;;20.00;99.90;;;;;;5011330;28;20055;-76
2022/08/14 04:46:21;;;;;;;;;;;20.00;99.90;;;;;;5015243;28;20026;-74
2022/08/14 04:48:47;;;;;;;;;;;20.00;99.90;;;;;;5017365;28;20055;-76
2022/08/14 04:51:14;;;;;;;;;;;19.90;99.90;;;;;;5015305;28;20424;-77
2022/08/14 04:53:44;;;;;;;;;;;19.90;99.90;;;;;;5014142;28;19944;-74
2022/08/14 04:56:11;;;;;;;;;;;19.90;99.90;;;;;;5015052;28;19909;-74
2022/08/14 04:58:37;;;;;;;;;;;19.90;99.90;;;;;;5014721;28;19905;-74
2022/08/14 05:01:05;;;;;;;;;;;20.00;99.90;;;;;;5014999;28;19947;-77
2022/08/14 05:03:32;;;;;;;;;;;20.00;99.90;;;;;;5014865;28;19993;-77
2022/08/14 05:05:58;;;;;;;;;;;20.00;99.90;;;;;;5013713;28;20000;-77
2022/08/14 05:08:24;;;;;;;;;;;20.10;99.90;;;;;;5014693;28;19972;-74
2022/08/14 05:10:52;;;;;;;;;;;20.10;99.90;;;;;;5014855;28;20351;-75
2022/08/14 05:13:18;;;;;;;;;;;20.10;99.90;;;;;;5014202;28;20288;-73
2022/08/14 05:15:45;;;;;;;;;;;20.00;99.90;;;;;;5014808;28;19905;-76
2022/08/14 05:18:12;;;;;;;;;;;20.10;99.90;;;;;;5014220;28;19905;-74
2022/08/14 05:20:39;;;;;;;;;;;20.10;99.90;;;;;;5015575;28;19905;-73
2022/08/14 05:23:06;;;;;;;;;;;20.00;99.90;;;;;;5014091;28;19905;-73
2022/08/14 05:25:33;;;;;;;;;;;20.00;99.90;;;;;;5014542;28;19971;-73
2022/08/14 05:28:05;;;;;;;;;;;20.00;99.90;;;;;;5014142;28;20376;-76
2022/08/14 05:30:31;;;;;;;;;;;20.00;99.90;;;;;;5024288;28;19916;-73
2022/08/14 05:32:56;;;;;;;;;;;20.00;99.90;;;;;;5014357;28;19958;-74
2022/08/14 05:35:22;;;;;;;;;;;20.00;99.90;;;;;;5016316;28;19992;-74
2022/08/14 05:37:48;;;;;;;;;;;20.00;99.90;;;;;;5014307;28;19995;-76
2022/08/14 05:40:14;;;;;;;;;;;20.00;99.90;;;;;;5013495;28;19913;-76
2022/08/14 05:42:39;;;;;;;;;;;20.00;99.90;;;;;;5005051;28;19909;-73
2022/08/14 05:45:05;;;;;;;;;;;19.90;99.90;;;;;;5014146;28;20004;-74
2022/08/14 05:47:31;;;;;;;;;;;19.90;99.90;;;;;;5015177;28;19912;-73
2022/08/14 05:49:57;;;;;;;;;;;19.90;99.90;;;;;;5014307;28;19999;-74
2022/08/14 05:52:22;;;;;;;;;;;19.90;99.90;;;;;;5013895;28;20296;-74
2022/08/14 05:54:48;;;;;;;;;;;19.90;99.90;;;;;;5013406;28;19945;-73
2022/08/14 05:57:13;;;;;;;;;;;19.90;99.90;;;;;;5013377;28;19905;-73
2022/08/14 05:59:40;;;;;;;;;;;20.00;99.90;;;;;;5014108;28;19909;-74
2022/08/14 06:02:07;;;;;;;;;;;20.00;99.90;;;;;;5013649;28;19992;-74
2022/08/14 06:04:32;;;;;;;;;;;20.00;99.90;;;;;;5013587;28;19916;-73
2022/08/14 06:06:58;;;;;;;;;;;20.00;99.90;;;;;;5013703;28;19905;-77
2022/08/14 06:09:23;;;;;;;;;;;20.00;99.90;;;;;;5013493;28;19920;-73
2022/08/14 06:11:49;;;;;;;;;;;20.00;99.90;;;;;;5013091;28;19935;-74
2022/08/14 06:14:14;;;;;;;;;;;20.00;99.90;;;;;;5013592;28;19905;-74
2022/08/14 06:16:43;;;;;;;;;;;20.00;99.90;;;;;;5013456;28;19913;-76
2022/08/14 06:19:09;;;;;;;;;;;20.00;99.90;;;;;;5014502;28;19940;-74
2022/08/14 06:21:35;;;;;;;;;;;20.10;99.90;;;;;;5013473;28;19964;-76
2022/08/14 06:24:00;;;;;;;;;;;20.10;99.90;;;;;;5013672;28;19913;-77
2022/08/14 06:26:26;;;;;;;;;;;20.10;99.90;;;;;;5013581;28;19905;-76
2022/08/14 06:28:51;;;;;;;;;;;20.10;99.90;;;;;;5013107;28;20317;-76
2022/08/14 06:31:17;;;;;;;;;;;20.10;99.90;;;;;;5013411;28;19991;-76
2022/08/14 06:33:42;;;;;;;;;;;20.10;99.90;;;;;;5012146;28;19912;-76
2022/08/14 06:36:08;;;;;;;;;;;20.20;99.90;;;;;;5015347;28;19956;-76
2022/08/14 06:38:33;;;;;;;;;;;20.30;99.90;;;;;;5013792;28;20000;-73
2022/08/14 06:40:59;;;;;;;;;;;20.50;99.90;;;;;;5000328;28;19917;-76
2022/08/14 06:43:24;;;;;;;;;;;20.60;99.90;;;;;;4995258;28;19929;-76
2022/08/14 06:45:50;;;;;;;;;;;20.60;99.90;;;;;;5012021;28;19913;-77
2022/08/14 06:48:17;;;;;;;;;;;20.60;99.90;;;;;;5015798;28;19905;-77
2022/08/14 06:50:43;;;;;;;;;;;20.60;99.90;;;;;;5015100;28;19909;-76
2022/08/14 06:53:09;;;;;;;;;;;20.60;99.90;;;;;;5017234;28;20000;-77
2022/08/14 06:55:34;;;;;;;;;;;20.60;99.90;;;;;;5016388;28;20407;-76
2022/08/14 06:58:00;;;;;;;;;;;20.60;99.90;;;;;;5016950;28;19928;-76
2022/08/14 07:00:26;;;;;;;;;;;20.50;99.90;;;;;;5017176;28;19906;-74
2022/08/14 07:05:45;;;;;;;;;;;20.60;99.90;;;;;;5016893;28;20319;-74
2022/08/14 07:08:18;;;;;;;;;;;20.50;99.90;;;;;;5017021;28;20016;-77
2022/08/14 07:10:44;;;;;;;;;;;20.50;99.90;;;;;;5016912;28;19909;-77
2022/08/14 07:13:10;;;;;;;;;;;20.50;99.90;;;;;;5016617;28;20012;-76
2022/08/14 07:15:36;;;;;;;;;;;20.40;99.90;;;;;;5016501;28;19912;-74
2022/08/14 07:18:02;;;;;;;;;;;20.50;99.90;;;;;;5015658;28;19905;-75
2022/08/14 07:20:28;;;;;;;;;;;20.50;99.90;;;;;;5017848;28;20000;-76
2022/08/14 07:22:59;;;;;;;;;;;20.50;99.90;;;;;;5016518;28;19905;-77
2022/08/14 07:25:24;;;;;;;;;;;20.50;99.90;;;;;;5016860;28;19921;-77
2022/08/14 07:27:50;;;;;;;;;;;20.60;99.90;;;;;;5016459;28;19909;-77
2022/08/14 07:30:16;;;;;;;;;;;20.70;99.90;;;;;;5016557;28;19917;-74
2022/08/14 07:32:42;;;;;;;;;;;20.60;99.90;;;;;;5015062;28;19909;-74
2022/08/14 07:35:07;;;;;;;;;;;20.70;99.90;;;;;;5018629;28;19947;-76
2022/08/14 07:37:33;;;;;;;;;;;20.80;99.90;;;;;;5016870;28;19940;-76
2022/08/14 07:40:00;;;;;;;;;;;20.90;99.90;;;;;;5016413;28;20373;-77
2022/08/14 07:42:25;;;;;;;;;;;20.80;99.90;;;;;;5006385;28;19912;-74
2022/08/14 07:44:51;;;;;;;;;;;20.70;99.90;;;;;;5016554;28;19910;-76
2022/08/14 07:47:16;;;;;;;;;;;20.60;99.90;;;;;;5018071;28;19912;-77
2022/08/14 07:49:50;;;;;;;;;;;20.70;99.90;;;;;;5016351;28;19909;-76
2022/08/14 07:52:16;;;;;;;;;;;20.70;99.90;;;;;;5015978;28;19917;-74
2022/08/14 07:54:42;;;;;;;;;;;20.70;99.90;;;;;;5016412;28;20284;-76
2022/08/14 07:57:07;;;;;;;;;;;20.80;99.90;;;;;;5014834;28;19948;-76
2022/08/14 07:59:33;;;;;;;;;;;20.80;99.90;;;;;;5015954;28;19906;-74
2022/08/14 08:01:59;;;;;;;;;;;20.70;99.90;;;;;;5015076;28;19912;-76
2022/08/14 08:04:25;;;;;;;;;;;20.70;99.90;;;;;;5016229;28;19905;-77
2022/08/14 08:06:51;;;;;;;;;;;20.70;99.90;;;;;;5016037;28;20020;-77
2022/08/14 08:09:17;;;;;;;;;;;20.80;99.90;;;;;;5015964;28;19922;-74
2022/08/14 08:11:43;;;;;;;;;;;20.90;99.90;;;;;;5015535;28;19909;-74
2022/08/14 08:14:09;;;;;;;;;;;20.90;99.90;;;;;;5015954;28;20327;-74
2022/08/14 08:16:37;;;;;;;;;;;20.90;99.90;;;;;;5019473;28;20368;-74
2022/08/14 08:19:02;;;;;;;;;;;21.00;99.90;;;;;;5015771;28;20269;-74
2022/08/14 08:21:28;;;;;;;;;;;21.00;99.90;;;;;;5009692;28;19951;-74
2022/08/14 08:23:54;;;;;;;;;;;21.10;99.90;;;;;;5015602;28;19928;-76
2022/08/14 08:26:19;;;;;;;;;;;21.20;99.90;;;;;;5015513;28;19960;-76
2022/08/14 08:28:54;;;;;;;;;;;21.30;99.90;;;;;;5015385;28;20295;-74
2022/08/14 08:31:19;;;;;;;;;;;21.60;99.90;;;;;;5015380;28;20007;-76
2022/08/14 08:33:50;;;;;;;;;;;21.70;99.90;;;;;;5015469;28;20340;-74
2022/08/14 08:36:15;;;;;;;;;;;21.70;99.90;;;;;;5017525;28;19916;-74
2022/08/14 08:38:41;;;;;;;;;;;21.70;99.90;;;;;;5015750;28;20344;-77
2022/08/14 08:41:09;;;;;;;;;;;21.70;99.90;;;;;;5012367;28;19914;-77
2022/08/14 08:43:35;;;;;;;;;;;21.90;99.90;;;;;;5009579;28;20047;-77
2022/08/14 08:46:00;;;;;;;;;;;22.00;99.90;;;;;;5015103;28;19948;-77
2022/08/14 08:48:29;;;;;;;;;;;22.10;99.90;;;;;;5016731;28;19933;-74
2022/08/14 08:50:59;;;;;;;;;;;22.30;99.90;;;;;;5015260;28;19906;-74
2022/08/14 08:53:32;;;;;;;;;;;22.70;99.90;;;;;;5014895;28;19983;-75
2022/08/14 08:55:57;;;;;;;;;;;22.80;99.90;;;;;;5013259;28;20254;-77
2022/08/14 08:58:24;;;;;;;;;;;23.10;99.90;;;;;;5013682;28;19912;-75
2022/08/14 09:00:52;;;;;;;;;;;22.90;99.90;;;;;;5014845;28;20292;-75
2022/08/14 09:03:20;;;;;;;;;;;22.90;99.90;;;;;;5015077;28;19912;-74
2022/08/14 09:05:56;;;;;;;;;;;24.30;99.90;;;;;;5014743;28;19905;-77
2022/08/14 09:08:25;;;;;;;;;;;25.10;99.90;;;;;;5014603;28;19905;-75
2022/08/14 09:10:52;;;;;;;;;;;23.90;99.90;;;;;;5014937;28;19932;-77
2022/08/14 09:13:18;;;;;;;;;;;23.20;99.90;;;;;;5012875;28;19909;-74
2022/08/14 09:15:44;;;;;;;;;;;22.70;99.90;;;;;;5014802;28;19906;-74
2022/08/14 09:18:11;;;;;;;;;;;22.40;99.90;;;;;;5013903;28;19965;-75
2022/08/14 09:20:38;;;;;;;;;;;22.20;99.90;;;;;;5015127;28;19905;-74
2022/08/14 09:23:04;;;;;;;;;;;22.40;99.90;;;;;;5014255;28;19913;-75
2022/08/14 09:25:30;;;;;;;;;;;23.20;99.90;;;;;;5014740;28;20396;-77
2022/08/14 09:27:55;;;;;;;;;;;24.60;99.90;;;;;;5014006;28;19940;-76
2022/08/14 09:30:21;;;;;;;;;;;24.80;99.90;;;;;;5014205;28;20345;-77
2022/08/14 09:32:59;;;;;;;;;;;25.10;99.90;;;;;;5014211;28;19906;-78
2022/08/14 09:35:47;;;;;;;;;;;24.00;99.90;;;;;;5016369;28;19905;-77
2022/08/14 09:38:15;;;;;;;;;;;24.60;99.90;;;;;;5014097;28;19910;-77
2022/08/14 09:40:50;;;;;;;;;;;26.50;99.90;;;;;;5013672;28;19967;-75
2022/08/14 09:43:18;;;;;;;;;;;25.60;99.90;;;;;;5005742;28;19905;-76
2022/08/14 09:45:46;;;;;;;;;;;26.70;99.90;;;;;;5014038;28;19951;-77
2022/08/14 09:48:16;;;;;;;;;;;26.10;99.90;;;;;;5016008;28;19906;-74
2022/08/14 09:50:44;;;;;;;;;;;25.00;99.90;;;;;;5013942;28;20012;-77
2022/08/14 09:53:10;;;;;;;;;;;25.80;99.90;;;;;;5013968;28;20319;-74
2022/08/14 09:55:36;;;;;;;;;;;25.00;99.90;;;;;;5013923;28;19905;-74
2022/08/14 09:58:12;;;;;;;;;;;24.10;99.90;;;;;;5012474;28;19928;-77
2022/08/14 10:00:42;;;;;;;;;;;23.60;99.90;;;;;;5014065;28;20323;-78
2022/08/14 10:03:08;;;;;;;;;;;23.90;99.90;;;;;;5013886;28;19905;-76
2022/08/14 10:05:34;;;;;;;;;;;24.00;99.90;;;;;;5013929;28;19912;-78
2022/08/14 10:08:00;;;;;;;;;;;24.60;99.90;;;;;;5014032;28;19978;-75
2022/08/14 10:10:32;;;;;;;;;;;24.20;99.90;;;;;;5013590;28;20283;-77
2022/08/14 10:12:59;;;;;;;;;;;23.60;99.90;;;;;;5013177;28;19983;-78
2022/08/14 10:15:26;;;;;;;;;;;23.60;99.90;;;;;;5013820;28;20423;-77
2022/08/14 10:18:21;;;;;;;;;;;24.20;99.90;;;;;;5013332;28;20008;-77
2022/08/14 10:20:56;;;;;;;;;;;24.80;99.90;;;;;;5008455;28;19906;-78
2022/08/14 10:23:23;;;;;;;;;;;24.90;99.90;;;;;;5011022;28;20399;-78
2022/08/14 10:25:56;;;;;;;;;;;26.20;99.90;;;;;;5013448;28;19928;-77
2022/08/14 10:28:22;;;;;;;;;;;25.60;99.90;;;;;;5013025;28;20004;-77
2022/08/14 10:30:52;;;;;;;;;;;25.00;99.90;;;;;;5013412;28;20004;-77
2022/08/14 10:33:28;;;;;;;;;;;25.90;99.90;;;;;;5013276;28;19905;-76
2022/08/14 10:35:55;;;;;;;;;;;25.80;99.90;;;;;;5015494;28;19906;-76
2022/08/14 10:38:26;;;;;;;;;;;27.30;99.90;;;;;;5013879;28;20021;-76
2022/08/14 10:40:52;;;;;;;;;;;27.80;99.80;;;;;;5012474;28;19945;-78
2022/08/14 10:43:24;;;;;;;;;;;28.00;99.30;;;;;;5005784;28;19941;-77
2022/08/14 10:45:54;;;;;;;;;;;27.60;99.20;;;;;;5013206;28;19939;-76
2022/08/14 10:48:19;;;;;;;;;;;27.90;98.80;;;;;;5014522;28;19952;-77
2022/08/14 10:50:50;;;;;;;;;;;27.40;99.20;;;;;;5013428;28;19968;-77
2022/08/14 10:53:26;;;;;;;;;;;26.80;99.90;;;;;;5013139;28;19917;-78
2022/08/14 10:55:56;;;;;;;;;;;27.40;99.40;;;;;;5013072;28;19912;-78
2022/08/14 10:58:26;;;;;;;;;;;26.70;99.90;;;;;;5012180;28;19910;-78
2022/08/14 11:00:56;;;;;;;;;;;27.10;99.90;;;;;;5011982;28;20379;-76
2022/08/14 11:03:22;;;;;;;;;;;27.50;99.10;;;;;;5013160;28;19913;-78
2022/08/14 11:05:49;;;;;;;;;;;27.60;99.10;;;;;;5013233;28;19912;-78
2022/08/14 11:08:16;;;;;;;;;;;27.70;99.00;;;;;;5013097;28;19955;-78
2022/08/14 11:10:52;;;;;;;;;;;27.30;99.30;;;;;;5012981;28;19956;-76
2022/08/14 11:13:20;;;;;;;;;;;27.00;99.30;;;;;;5010950;28;19906;-77
2022/08/14 11:15:47;;;;;;;;;;;27.20;99.20;;;;;;5013344;28;19905;-78
2022/08/14 11:18:13;;;;;;;;;;;27.60;99.30;;;;;;5012885;28;20000;-77
2022/08/14 11:20:44;;;;;;;;;;;27.80;98.70;;;;;;5014249;28;19905;-78
2022/08/14 11:23:10;;;;;;;;;;;27.00;99.30;;;;;;5010819;28;19905;-78
2022/08/14 11:25:36;;;;;;;;;;;26.20;99.90;;;;;;5013193;28;20400;-78
2022/08/14 11:28:02;;;;;;;;;;;25.90;99.90;;;;;;5012745;28;19905;-78
2022/08/14 11:30:29;;;;;;;;;;;25.40;99.90;;;;;;5011668;28;19909;-78
2022/08/14 11:32:56;;;;;;;;;;;25.20;99.90;;;;;;5012664;28;19947;-77
2022/08/14 11:35:23;;;;;;;;;;;25.00;99.90;;;;;;5015065;28;20404;-77
2022/08/14 11:37:50;;;;;;;;;;;25.10;99.90;;;;;;5014962;28;20304;-78
2022/08/14 11:40:17;;;;;;;;;;;25.20;99.90;;;;;;5016434;28;20380;-80
2022/08/14 11:42:44;;;;;;;;;;;25.40;99.90;;;;;;5006448;28;19992;-79
2022/08/14 11:45:10;;;;;;;;;;;25.40;99.90;;;;;;5013983;28;20454;-78
2022/08/14 11:47:36;;;;;;;;;;;25.20;99.90;;;;;;5018217;28;19906;-78
2022/08/14 11:50:10;;;;;;;;;;;25.10;99.90;;;;;;5016350;28;19952;-77
2022/08/14 11:52:38;;;;;;;;;;;24.90;99.90;;;;;;5010977;28;19932;-81
2022/08/14 11:55:07;;;;;;;;;;;25.10;99.90;;;;;;5011696;28;19920;-78
2022/08/14 11:57:35;;;;;;;;;;;25.10;99.90;;;;;;5015673;28;19905;-78
2022/08/14 12:00:05;;;;;;;;;;;24.80;99.90;;;;;;5015427;28;19959;-78
2022/08/14 12:02:30;;;;;;;;;;;24.60;99.90;;;;;;5016111;28;19959;-77
2022/08/14 12:04:56;;;;;;;;;;;24.60;99.90;;;;;;5014715;28;19948;-79
2022/08/14 12:07:22;;;;;;;;;;;24.40;99.90;;;;;;5014774;28;19906;-79
2022/08/14 12:09:51;;;;;;;;;;;24.50;99.90;;;;;;5016446;28;20019;-76
2022/08/14 12:12:18;;;;;;;;;;;25.20;99.90;;;;;;5015670;28;19952;-79
2022/08/14 12:15:02;;;;;;;;;;;25.00;99.90;;;;;;5015996;28;19912;-76
2022/08/14 12:17:30;;;;;;;;;;;24.90;99.90;;;;;;5015923;28;19955;-76
2022/08/14 12:19:57;;;;;;;;;;;24.70;99.90;;;;;;5015761;28;20261;-78
2022/08/14 12:22:36;;;;;;;;;;;24.70;99.90;;;;;;5015496;28;20287;-78
2022/08/14 12:25:03;;;;;;;;;;;24.90;99.90;;;;;;5015932;28;19912;-79
2022/08/14 12:27:36;;;;;;;;;;;24.90;99.90;;;;;;5015321;28;20387;-79
2022/08/14 12:30:01;;;;;;;;;;;25.00;99.90;;;;;;5014335;28;19935;-77
2022/08/14 12:32:37;;;;;;;;;;;25.00;99.90;;;;;;5015489;28;20000;-76
2022/08/14 12:35:03;;;;;;;;;;;25.00;99.90;;;;;;5017535;28;20383;-75
2022/08/14 12:37:30;;;;;;;;;;;24.50;99.90;;;;;;5015412;28;19945;-78
2022/08/14 12:40:06;;;;;;;;;;;24.70;99.90;;;;;;5007895;28;19996;-78
2022/08/14 12:42:33;;;;;;;;;;;24.50;99.90;;;;;;5004776;28;19919;-76
2022/08/14 12:44:59;;;;;;;;;;;24.60;99.90;;;;;;5015410;28;19955;-77
2022/08/14 12:47:29;;;;;;;;;;;24.50;99.90;;;;;;5016507;28;20308;-78
2022/08/14 12:49:56;;;;;;;;;;;24.80;99.90;;;;;;5015227;28;20319;-79
2022/08/14 12:52:41;;;;;;;;;;;24.80;99.90;;;;;;5014727;28;19967;-76
2022/08/14 12:55:13;;;;;;;;;;;24.50;99.90;;;;;;5013766;28;19905;-76
2022/08/14 12:57:41;;;;;;;;;;;24.80;99.90;;;;;;5014696;28;19941;-78
2022/08/14 13:00:10;;;;;;;;;;;24.80;99.90;;;;;;5014085;28;20285;-78
2022/08/14 13:02:37;;;;;;;;;;;25.10;99.90;;;;;;5013825;28;19905;-78
2022/08/14 13:05:03;;;;;;;;;;;25.50;99.90;;;;;;5014849;28;19906;-78
2022/08/14 13:07:28;;;;;;;;;;;25.40;99.90;;;;;;5014860;28;19956;-77
2022/08/14 13:09:55;;;;;;;;;;;25.30;99.90;;;;;;5014252;28;19913;-78
2022/08/14 13:12:24;;;;;;;;;;;25.50;99.90;;;;;;5014249;28;19913;-77
2022/08/14 13:14:49;;;;;;;;;;;25.30;99.90;;;;;;5014913;28;19945;-77
2022/08/14 13:17:15;;;;;;;;;;;25.20;99.90;;;;;;5013479;28;19912;-77
2022/08/14 13:19:41;;;;;;;;;;;24.90;99.90;;;;;;5015254;28;19906;-77
2022/08/14 13:22:07;;;;;;;;;;;24.60;99.90;;;;;;5014034;28;20372;-78
2022/08/14 13:24:33;;;;;;;;;;;24.80;99.90;;;;;;5014535;28;19913;-76
2022/08/14 13:27:02;;;;;;;;;;;24.80;99.90;;;;;;5014739;28;19906;-77
2022/08/14 13:29:32;;;;;;;;;;;24.90;99.90;;;;;;5014083;28;20332;-77
2022/08/14 13:31:58;;;;;;;;;;;25.20;99.90;;;;;;5014534;28;20003;-78
2022/08/14 13:34:25;;;;;;;;;;;25.60;99.90;;;;;;5014179;28;19948;-76
2022/08/14 13:36:51;;;;;;;;;;;26.00;99.90;;;;;;5016502;28;20340;-77
2022/08/14 13:39:17;;;;;;;;;;;25.50;99.90;;;;;;5014451;28;19909;-76
2022/08/14 13:41:43;;;;;;;;;;;24.40;99.90;;;;;;5006560;28;19961;-78
2022/08/14 13:44:10;;;;;;;;;;;24.40;99.90;;;;;;5012565;28;19940;-78
2022/08/14 13:46:36;;;;;;;;;;;24.80;99.90;;;;;;5014708;28;20004;-75
2022/08/14 13:49:02;;;;;;;;;;;25.10;99.90;;;;;;5015222;28;19916;-76
2022/08/14 13:51:30;;;;;;;;;;;25.40;99.90;;;;;;5014084;28;19905;-76
2022/08/14 13:53:56;;;;;;;;;;;25.10;99.90;;;;;;5012692;28;19916;-76
2022/08/14 13:56:25;;;;;;;;;;;25.40;99.90;;;;;;5014168;28;19972;-76
2022/08/14 13:58:50;;;;;;;;;;;25.00;99.90;;;;;;5013670;28;19910;-79
2022/08/14 14:01:16;;;;;;;;;;;24.60;99.90;;;;;;5012584;28;19906;-77
2022/08/14 14:03:45;;;;;;;;;;;24.30;99.90;;;;;;5013901;28;19913;-78
2022/08/14 14:06:12;;;;;;;;;;;24.20;99.90;;;;;;5013892;28;19956;-79
2022/08/14 14:08:44;;;;;;;;;;;24.80;99.90;;;;;;5012271;28;19912;-77
2022/08/14 14:11:12;;;;;;;;;;;25.60;99.90;;;;;;5013676;28;19905;-79
2022/08/14 14:13:38;;;;;;;;;;;25.00;99.90;;;;;;5017453;28;19909;-79
2022/08/14 14:16:05;;;;;;;;;;;24.60;99.90;;;;;;5013613;28;19905;-76
2022/08/14 14:18:31;;;;;;;;;;;24.40;99.90;;;;;;5013302;28;19917;-77
2022/08/14 14:20:57;;;;;;;;;;;24.20;99.90;;;;;;5014245;28;19906;-79
2022/08/14 14:23:24;;;;;;;;;;;24.50;99.90;;;;;;5008230;28;20104;-78
2022/08/14 14:25:51;;;;;;;;;;;25.50;99.90;;;;;;5013728;28;19905;-77
2022/08/14 14:28:17;;;;;;;;;;;26.00;99.90;;;;;;5013289;28;19905;-79